Alexandria, Canada
Current Conditions -  °F | °C
As of 11:53 PM on Saturday 22 Nov 2014 (Local Time) from KMSS Reporting Station
Light Rain Light Rain  
Wind Chill: 32°   Ceiling: 400
Heat Index: 39°   Visibility: 3mi
Dew Point: 39°   Wind: 12mph
Humidity: 100%   Direction: 220°SW
Pressure: 29.93"   Gusts: NA
Location:  45.3°N, 74.63°W
Report Text: KMSS 230453Z AUTO 22010KT 3SM -RA BR OVC004 04/04 A2993 RMK AO2 RAB36 SLP139 P0000 T00390039 400391083
Loading
Personal Weather Stations






























Interactive Weather Map New forecast layout! Learn more

10-Day Weather Forecast

Advertisements
Track Severe Weather on mobile